sensor_id;sensor_type;location;lat;lon;timestamp;P1;durP1;ratioP1;P2;durP2;ratioP2
71648;SDS011;70112;45.624;11.760;2023-09-19T00:00:21;21.40;;;14.40;;
71648;SDS011;70112;45.624;11.760;2023-09-19T00:02:53;19.60;;;13.60;;
71648;SDS011;70112;45.624;11.760;2023-09-19T00:05:23;24.80;;;14.30;;
71648;SDS011;70112;45.624;11.760;2023-09-19T00:07:53;19.60;;;13.70;;
71648;SDS011;70112;45.624;11.760;2023-09-19T00:10:24;16.80;;;12.10;;
71648;SDS011;70112;45.624;11.760;2023-09-19T00:12:53;19.40;;;12.90;;
71648;SDS011;70112;45.624;11.760;2023-09-19T00:15:21;22.20;;;13.70;;
71648;SDS011;70112;45.624;11.760;2023-09-19T00:17:49;19.10;;;13.50;;
71648;SDS011;70112;45.624;11.760;2023-09-19T00:20:18;19.60;;;13.80;;
71648;SDS011;70112;45.624;11.760;2023-09-19T00:22:44;15.30;;;13.10;;
71648;SDS011;70112;45.624;11.760;2023-09-19T00:25:10;23.30;;;14.20;;
71648;SDS011;70112;45.624;11.760;2023-09-19T00:27:40;16.40;;;13.20;;
71648;SDS011;70112;45.624;11.760;2023-09-19T00:30:09;18.60;;;13.50;;
71648;SDS011;70112;45.624;11.760;2023-09-19T00:32:46;19.90;;;13.80;;
71648;SDS011;70112;45.624;11.760;2023-09-19T00:35:15;19.60;;;15.20;;
71648;SDS011;70112;45.624;11.760;2023-09-19T00:37:41;18.90;;;14.70;;
71648;SDS011;70112;45.624;11.760;2023-09-19T00:40:09;18.30;;;14.30;;
71648;SDS011;70112;45.624;11.760;2023-09-19T00:42:40;19.20;;;14.10;;
71648;SDS011;70112;45.624;11.760;2023-09-19T00:45:13;19.80;;;14.40;;
71648;SDS011;70112;45.624;11.760;2023-09-19T00:47:45;19.50;;;14.10;;
71648;SDS011;70112;45.624;11.760;2023-09-19T00:50:15;18.50;;;13.40;;
71648;SDS011;70112;45.624;11.760;2023-09-19T00:52:43;20.20;;;13.50;;
71648;SDS011;70112;45.624;11.760;2023-09-19T00:55:10;18.70;;;13.30;;
71648;SDS011;70112;45.624;11.760;2023-09-19T00:57:38;20.40;;;13.60;;
71648;SDS011;70112;45.624;11.760;2023-09-19T01:00:05;23.70;;;13.20;;
71648;SDS011;70112;45.624;11.760;2023-09-19T01:02:34;17.30;;;13.00;;
71648;SDS011;70112;45.624;11.760;2023-09-19T01:05:00;21.10;;;13.70;;
71648;SDS011;70112;45.624;11.760;2023-09-19T01:07:29;17.60;;;13.90;;
71648;SDS011;70112;45.624;11.760;2023-09-19T01:10:00;25.50;;;14.00;;
71648;SDS011;70112;45.624;11.760;2023-09-19T01:15:28;22.70;;;13.30;;
71648;SDS011;70112;45.624;11.760;2023-09-19T01:21:18;19.30;;;12.80;;
71648;SDS011;70112;45.624;11.760;2023-09-19T01:29:46;16.30;;;12.10;;
71648;SDS011;70112;45.624;11.760;2023-09-19T01:32:16;17.20;;;11.90;;
71648;SDS011;70112;45.624;11.760;2023-09-19T01:37:15;17.60;;;12.30;;
71648;SDS011;70112;45.624;11.760;2023-09-19T01:40:07;24.40;;;13.50;;
71648;SDS011;70112;45.624;11.760;2023-09-19T01:43:02;18.30;;;13.00;;
71648;SDS011;70112;45.624;11.760;2023-09-19T01:46:09;20.20;;;12.80;;
71648;SDS011;70112;45.624;11.760;2023-09-19T01:48:43;15.70;;;12.40;;
71648;SDS011;70112;45.624;11.760;2023-09-19T01:51:22;21.10;;;11.50;;
71648;SDS011;70112;45.624;11.760;2023-09-19T01:54:12;17.70;;;12.30;;
71648;SDS011;70112;45.624;11.760;2023-09-19T01:56:50;14.70;;;12.10;;
71648;SDS011;70112;45.624;11.760;2023-09-19T01:59:24;18.00;;;12.40;;
71648;SDS011;70112;45.624;11.760;2023-09-19T02:01:55;15.60;;;11.60;;
71648;SDS011;70112;45.624;11.760;2023-09-19T02:04:21;16.40;;;12.50;;
71648;SDS011;70112;45.624;11.760;2023-09-19T02:06:47;17.90;;;12.60;;
71648;SDS011;70112;45.624;11.760;2023-09-19T02:09:14;18.50;;;12.20;;
71648;SDS011;70112;45.624;11.760;2023-09-19T02:11:42;14.70;;;11.30;;
71648;SDS011;70112;45.624;11.760;2023-09-19T02:14:08;19.20;;;11.60;;
71648;SDS011;70112;45.624;11.760;2023-09-19T02:16:34;19.80;;;12.50;;
71648;SDS011;70112;45.624;11.760;2023-09-19T02:19:00;17.80;;;12.30;;
71648;SDS011;70112;45.624;11.760;2023-09-19T02:21:30;15.20;;;11.60;;
71648;SDS011;70112;45.624;11.760;2023-09-19T02:23:56;17.10;;;12.00;;
71648;SDS011;70112;45.624;11.760;2023-09-19T02:26:21;20.80;;;12.70;;
71648;SDS011;70112;45.624;11.760;2023-09-19T02:28:49;16.20;;;11.60;;
71648;SDS011;70112;45.624;11.760;2023-09-19T02:31:15;16.00;;;11.20;;
71648;SDS011;70112;45.624;11.760;2023-09-19T02:33:41;15.90;;;11.60;;
71648;SDS011;70112;45.624;11.760;2023-09-19T02:36:08;19.50;;;12.10;;
71648;SDS011;70112;45.624;11.760;2023-09-19T02:38:35;23.20;;;12.40;;
71648;SDS011;70112;45.624;11.760;2023-09-19T02:41:02;22.40;;;12.00;;
71648;SDS011;70112;45.624;11.760;2023-09-19T02:43:28;18.40;;;11.70;;
71648;SDS011;70112;45.624;11.760;2023-09-19T02:45:54;16.40;;;12.10;;
71648;SDS011;70112;45.624;11.760;2023-09-19T02:48:20;17.00;;;11.60;;
71648;SDS011;70112;45.624;11.760;2023-09-19T02:50:49;21.30;;;11.80;;
71648;SDS011;70112;45.624;11.760;2023-09-19T02:53:15;19.40;;;11.70;;
71648;SDS011;70112;45.624;11.760;2023-09-19T02:55:40;16.40;;;11.80;;
71648;SDS011;70112;45.624;11.760;2023-09-19T02:58:07;20.00;;;13.00;;
71648;SDS011;70112;45.624;11.760;2023-09-19T03:00:39;17.90;;;12.50;;
71648;SDS011;70112;45.624;11.760;2023-09-19T03:03:07;18.10;;;12.50;;
71648;SDS011;70112;45.624;11.760;2023-09-19T03:05:34;18.30;;;12.10;;
71648;SDS011;70112;45.624;11.760;2023-09-19T03:08:00;16.30;;;13.00;;
71648;SDS011;70112;45.624;11.760;2023-09-19T03:10:26;17.20;;;12.90;;
71648;SDS011;70112;45.624;11.760;2023-09-19T03:12:53;21.20;;;12.80;;
71648;SDS011;70112;45.624;11.760;2023-09-19T03:15:19;27.70;;;12.80;;
71648;SDS011;70112;45.624;11.760;2023-09-19T03:17:46;18.70;;;11.80;;
71648;SDS011;70112;45.624;11.760;2023-09-19T03:20:13;19.40;;;12.30;;
71648;SDS011;70112;45.624;11.760;2023-09-19T03:22:43;21.10;;;13.40;;
71648;SDS011;70112;45.624;11.760;2023-09-19T03:25:09;17.00;;;13.20;;
71648;SDS011;70112;45.624;11.760;2023-09-19T03:27:39;17.00;;;13.20;;
71648;SDS011;70112;45.624;11.760;2023-09-19T03:30:06;16.20;;;12.60;;
71648;SDS011;70112;45.624;11.760;2023-09-19T03:32:36;18.30;;;13.20;;
71648;SDS011;70112;45.624;11.760;2023-09-19T03:35:03;19.40;;;13.20;;
71648;SDS011;70112;45.624;11.760;2023-09-19T03:37:32;19.10;;;13.10;;
71648;SDS011;70112;45.624;11.760;2023-09-19T03:40:00;18.60;;;13.00;;
71648;SDS011;70112;45.624;11.760;2023-09-19T03:42:30;17.70;;;13.30;;
71648;SDS011;70112;45.624;11.760;2023-09-19T03:44:56;24.30;;;13.10;;
71648;SDS011;70112;45.624;11.760;2023-09-19T03:47:22;17.00;;;12.10;;
71648;SDS011;70112;45.624;11.760;2023-09-19T03:49:47;20.50;;;13.10;;
71648;SDS011;70112;45.624;11.760;2023-09-19T03:52:13;20.30;;;12.20;;
71648;SDS011;70112;45.624;11.760;2023-09-19T03:54:40;17.80;;;12.10;;
71648;SDS011;70112;45.624;11.760;2023-09-19T03:57:07;17.10;;;12.50;;
71648;SDS011;70112;45.624;11.760;2023-09-19T03:59:32;17.90;;;12.00;;
71648;SDS011;70112;45.624;11.760;2023-09-19T04:01:58;18.60;;;12.10;;
71648;SDS011;70112;45.624;11.760;2023-09-19T04:04:24;14.20;;;11.50;;
71648;SDS011;70112;45.624;11.760;2023-09-19T04:06:51;17.00;;;11.90;;
71648;SDS011;70112;45.624;11.760;2023-09-19T04:09:16;18.90;;;11.60;;
71648;SDS011;70112;45.624;11.760;2023-09-19T04:11:42;16.30;;;11.70;;
71648;SDS011;70112;45.624;11.760;2023-09-19T04:14:07;21.80;;;11.90;;
71648;SDS011;70112;45.624;11.760;2023-09-19T04:16:33;17.00;;;11.50;;
71648;SDS011;70112;45.624;11.760;2023-09-19T04:18:58;15.10;;;12.00;;
71648;SDS011;70112;45.624;11.760;2023-09-19T04:21:24;14.00;;;11.20;;
71648;SDS011;70112;45.624;11.760;2023-09-19T04:23:49;14.30;;;10.80;;
71648;SDS011;70112;45.624;11.760;2023-09-19T04:26:15;12.60;;;9.50;;
71648;SDS011;70112;45.624;11.760;2023-09-19T04:28:41;13.90;;;10.90;;
71648;SDS011;70112;45.624;11.760;2023-09-19T04:31:09;15.30;;;10.60;;
71648;SDS011;70112;45.624;11.760;2023-09-19T04:33:35;16.10;;;11.50;;
71648;SDS011;70112;45.624;11.760;2023-09-19T04:36:01;14.60;;;10.70;;
71648;SDS011;70112;45.624;11.760;2023-09-19T04:38:28;18.40;;;11.50;;
71648;SDS011;70112;45.624;11.760;2023-09-19T04:40:57;13.60;;;11.10;;
71648;SDS011;70112;45.624;11.760;2023-09-19T04:43:24;20.80;;;11.30;;
71648;SDS011;70112;45.624;11.760;2023-09-19T04:45:50;13.90;;;11.20;;
71648;SDS011;70112;45.624;11.760;2023-09-19T04:48:16;13.20;;;10.60;;
71648;SDS011;70112;45.624;11.760;2023-09-19T04:50:42;15.50;;;11.60;;
71648;SDS011;70112;45.624;11.760;2023-09-19T04:53:08;20.80;;;11.40;;
71648;SDS011;70112;45.624;11.760;2023-09-19T04:55:33;20.80;;;11.70;;
71648;SDS011;70112;45.624;11.760;2023-09-19T04:57:59;16.40;;;11.60;;
71648;SDS011;70112;45.624;11.760;2023-09-19T05:00:24;17.90;;;10.40;;
71648;SDS011;70112;45.624;11.760;2023-09-19T05:02:55;13.10;;;10.50;;
71648;SDS011;70112;45.624;11.760;2023-09-19T05:05:23;13.20;;;11.00;;
71648;SDS011;70112;45.624;11.760;2023-09-19T05:07:50;19.90;;;11.30;;
71648;SDS011;70112;45.624;11.760;2023-09-19T05:10:17;20.70;;;11.10;;
71648;SDS011;70112;45.624;11.760;2023-09-19T05:12:44;18.00;;;11.00;;
71648;SDS011;70112;45.624;11.760;2023-09-19T05:15:12;19.20;;;10.90;;
71648;SDS011;70112;45.624;11.760;2023-09-19T05:17:40;18.20;;;10.80;;
71648;SDS011;70112;45.624;11.760;2023-09-19T05:20:06;19.70;;;10.50;;
71648;SDS011;70112;45.624;11.760;2023-09-19T05:22:56;15.70;;;10.80;;
71648;SDS011;70112;45.624;11.760;2023-09-19T05:25:31;18.90;;;11.20;;
71648;SDS011;70112;45.624;11.760;2023-09-19T05:27:58;21.40;;;10.30;;
71648;SDS011;70112;45.624;11.760;2023-09-19T05:30:27;19.30;;;11.00;;
71648;SDS011;70112;45.624;11.760;2023-09-19T05:32:54;17.10;;;10.70;;
71648;SDS011;70112;45.624;11.760;2023-09-19T05:35:21;17.70;;;10.40;;
71648;SDS011;70112;45.624;11.760;2023-09-19T05:37:50;17.70;;;10.40;;
71648;SDS011;70112;45.624;11.760;2023-09-19T05:40:17;20.20;;;10.90;;
71648;SDS011;70112;45.624;11.760;2023-09-19T05:42:43;20.10;;;11.90;;
71648;SDS011;70112;45.624;11.760;2023-09-19T05:45:10;22.30;;;11.10;;
71648;SDS011;70112;45.624;11.760;2023-09-19T05:47:42;14.20;;;11.10;;
71648;SDS011;70112;45.624;11.760;2023-09-19T05:50:09;22.70;;;11.30;;
71648;SDS011;70112;45.624;11.760;2023-09-19T05:52:38;17.30;;;11.60;;
71648;SDS011;70112;45.624;11.760;2023-09-19T05:55:07;20.70;;;10.90;;
71648;SDS011;70112;45.624;11.760;2023-09-19T05:57:37;16.40;;;11.20;;
71648;SDS011;70112;45.624;11.760;2023-09-19T06:00:08;22.00;;;10.30;;
71648;SDS011;70112;45.624;11.760;2023-09-19T06:02:38;19.60;;;10.20;;
71648;SDS011;70112;45.624;11.760;2023-09-19T06:05:06;15.20;;;10.30;;
71648;SDS011;70112;45.624;11.760;2023-09-19T06:07:36;15.00;;;10.00;;
71648;SDS011;70112;45.624;11.760;2023-09-19T06:10:03;18.70;;;10.50;;
71648;SDS011;70112;45.624;11.760;2023-09-19T06:12:37;18.80;;;10.10;;
71648;SDS011;70112;45.624;11.760;2023-09-19T06:15:04;20.00;;;10.80;;
71648;SDS011;70112;45.624;11.760;2023-09-19T06:17:31;15.10;;;9.60;;
71648;SDS011;70112;45.624;11.760;2023-09-19T06:19:56;16.50;;;10.20;;
71648;SDS011;70112;45.624;11.760;2023-09-19T06:22:22;14.00;;;9.90;;
71648;SDS011;70112;45.624;11.760;2023-09-19T06:24:49;13.40;;;9.10;;
71648;SDS011;70112;45.624;11.760;2023-09-19T06:27:15;14.70;;;9.10;;
71648;SDS011;70112;45.624;11.760;2023-09-19T06:29:40;14.40;;;8.80;;
71648;SDS011;70112;45.624;11.760;2023-09-19T06:32:09;11.90;;;8.10;;
71648;SDS011;70112;45.624;11.760;2023-09-19T06:34:36;15.30;;;8.70;;
71648;SDS011;70112;45.624;11.760;2023-09-19T06:37:04;20.70;;;8.90;;
71648;SDS011;70112;45.624;11.760;2023-09-19T06:39:31;12.90;;;8.00;;
71648;SDS011;70112;45.624;11.760;2023-09-19T06:41:57;17.70;;;8.60;;
71648;SDS011;70112;45.624;11.760;2023-09-19T06:44:23;16.60;;;8.50;;
71648;SDS011;70112;45.624;11.760;2023-09-19T06:46:50;14.10;;;7.70;;
71648;SDS011;70112;45.624;11.760;2023-09-19T06:49:16;15.20;;;8.40;;
71648;SDS011;70112;45.624;11.760;2023-09-19T06:51:42;14.20;;;8.60;;
71648;SDS011;70112;45.624;11.760;2023-09-19T06:54:09;15.30;;;8.90;;
71648;SDS011;70112;45.624;11.760;2023-09-19T06:56:35;14.10;;;8.70;;
71648;SDS011;70112;45.624;11.760;2023-09-19T06:59:01;16.40;;;9.10;;
71648;SDS011;70112;45.624;11.760;2023-09-19T07:01:28;12.60;;;8.80;;
71648;SDS011;70112;45.624;11.760;2023-09-19T07:03:54;15.50;;;8.50;;
71648;SDS011;70112;45.624;11.760;2023-09-19T07:06:19;12.80;;;8.10;;
71648;SDS011;70112;45.624;11.760;2023-09-19T07:08:45;14.20;;;8.70;;
71648;SDS011;70112;45.624;11.760;2023-09-19T07:11:11;15.70;;;8.70;;
71648;SDS011;70112;45.624;11.760;2023-09-19T07:13:38;13.60;;;8.10;;
71648;SDS011;70112;45.624;11.760;2023-09-19T07:16:04;12.70;;;8.50;;
71648;SDS011;70112;45.624;11.760;2023-09-19T07:18:30;11.30;;;8.50;;
71648;SDS011;70112;45.624;11.760;2023-09-19T07:20:57;13.20;;;8.20;;
71648;SDS011;70112;45.624;11.760;2023-09-19T07:23:30;11.80;;;8.20;;
71648;SDS011;70112;45.624;11.760;2023-09-19T07:26:01;14.80;;;8.60;;
71648;SDS011;70112;45.624;11.760;2023-09-19T07:28:27;22.00;;;8.90;;
71648;SDS011;70112;45.624;11.760;2023-09-19T07:30:53;11.50;;;7.60;;
71648;SDS011;70112;45.624;11.760;2023-09-19T07:33:19;20.60;;;8.80;;
71648;SDS011;70112;45.624;11.760;2023-09-19T07:35:48;21.10;;;10.20;;
71648;SDS011;70112;45.624;11.760;2023-09-19T07:38:14;22.00;;;10.10;;
71648;SDS011;70112;45.624;11.760;2023-09-19T07:40:39;19.40;;;9.70;;
71648;SDS011;70112;45.624;11.760;2023-09-19T07:43:05;21.80;;;10.70;;
71648;SDS011;70112;45.624;11.760;2023-09-19T07:45:32;21.50;;;11.10;;
71648;SDS011;70112;45.624;11.760;2023-09-19T07:47:58;22.80;;;11.50;;
71648;SDS011;70112;45.624;11.760;2023-09-19T07:50:24;19.60;;;11.30;;
71648;SDS011;70112;45.624;11.760;2023-09-19T07:52:52;22.00;;;10.10;;
71648;SDS011;70112;45.624;11.760;2023-09-19T07:55:21;15.80;;;10.00;;
71648;SDS011;70112;45.624;11.760;2023-09-19T07:57:52;20.60;;;10.30;;
71648;SDS011;70112;45.624;11.760;2023-09-19T08:00:18;19.70;;;10.00;;
71648;SDS011;70112;45.624;11.760;2023-09-19T08:02:43;17.20;;;9.70;;
71648;SDS011;70112;45.624;11.760;2023-09-19T08:05:10;16.40;;;9.90;;
71648;SDS011;70112;45.624;11.760;2023-09-19T08:07:44;28.30;;;12.40;;
71648;SDS011;70112;45.624;11.760;2023-09-19T08:10:15;33.30;;;11.50;;
71648;SDS011;70112;45.624;11.760;2023-09-19T08:12:42;22.10;;;11.00;;
71648;SDS011;70112;45.624;11.760;2023-09-19T08:15:20;18.40;;;10.20;;
71648;SDS011;70112;45.624;11.760;2023-09-19T08:17:46;21.60;;;10.40;;
71648;SDS011;70112;45.624;11.760;2023-09-19T08:20:12;18.60;;;10.10;;
71648;SDS011;70112;45.624;11.760;2023-09-19T08:22:53;22.80;;;11.10;;
71648;SDS011;70112;45.624;11.760;2023-09-19T08:25:22;20.90;;;10.90;;
71648;SDS011;70112;45.624;11.760;2023-09-19T08:27:50;18.70;;;12.50;;
71648;SDS011;70112;45.624;11.760;2023-09-19T08:30:17;25.90;;;11.50;;
71648;SDS011;70112;45.624;11.760;2023-09-19T08:32:49;20.00;;;10.10;;
71648;SDS011;70112;45.624;11.760;2023-09-19T08:35:15;19.30;;;11.60;;
71648;SDS011;70112;45.624;11.760;2023-09-19T08:37:44;17.70;;;10.90;;
71648;SDS011;70112;45.624;11.760;2023-09-19T08:40:13;16.50;;;10.30;;
71648;SDS011;70112;45.624;11.760;2023-09-19T08:42:55;15.90;;;10.50;;
71648;SDS011;70112;45.624;11.760;2023-09-19T08:45:23;16.00;;;10.50;;
71648;SDS011;70112;45.624;11.760;2023-09-19T08:50:49;17.00;;;9.50;;
71648;SDS011;70112;45.624;11.760;2023-09-19T08:55:50;18.10;;;9.40;;
71648;SDS011;70112;45.624;11.760;2023-09-19T08:58:19;12.80;;;9.60;;
71648;SDS011;70112;45.624;11.760;2023-09-19T09:00:48;19.70;;;10.70;;
71648;SDS011;70112;45.624;11.760;2023-09-19T09:03:16;17.80;;;10.10;;
71648;SDS011;70112;45.624;11.760;2023-09-19T09:05:46;21.20;;;10.70;;
71648;SDS011;70112;45.624;11.760;2023-09-19T09:08:13;18.20;;;10.80;;
71648;SDS011;70112;45.624;11.760;2023-09-19T09:10:39;21.10;;;11.40;;
71648;SDS011;70112;45.624;11.760;2023-09-19T09:13:06;24.90;;;11.20;;
71648;SDS011;70112;45.624;11.760;2023-09-19T09:15:35;21.20;;;9.80;;
71648;SDS011;70112;45.624;11.760;2023-09-19T09:18:02;18.40;;;8.40;;
71648;SDS011;70112;45.624;11.760;2023-09-19T09:20:28;18.10;;;9.00;;
71648;SDS011;70112;45.624;11.760;2023-09-19T09:22:55;14.90;;;9.50;;
71648;SDS011;70112;45.624;11.760;2023-09-19T09:25:51;15.20;;;8.20;;
71648;SDS011;70112;45.624;11.760;2023-09-19T09:28:23;15.70;;;8.60;;
71648;SDS011;70112;45.624;11.760;2023-09-19T09:30:50;13.60;;;8.10;;
71648;SDS011;70112;45.624;11.760;2023-09-19T09:33:17;14.50;;;8.80;;
71648;SDS011;70112;45.624;11.760;2023-09-19T09:35:53;11.90;;;7.20;;
71648;SDS011;70112;45.624;11.760;2023-09-19T09:38:25;13.50;;;6.20;;
71648;SDS011;70112;45.624;11.760;2023-09-19T09:40:57;10.90;;;7.00;;
71648;SDS011;70112;45.624;11.760;2023-09-19T09:43:37;10.10;;;6.70;;
71648;SDS011;70112;45.624;11.760;2023-09-19T09:46:13;12.70;;;7.30;;
71648;SDS011;70112;45.624;11.760;2023-09-19T09:51:38;12.80;;;5.70;;
71648;SDS011;70112;45.624;11.760;2023-09-19T09:54:15;11.60;;;5.80;;
71648;SDS011;70112;45.624;11.760;2023-09-19T09:56:58;11.00;;;6.30;;
71648;SDS011;70112;45.624;11.760;2023-09-19T09:59:50;15.00;;;6.70;;
71648;SDS011;70112;45.624;11.760;2023-09-19T10:02:35;12.20;;;5.80;;
71648;SDS011;70112;45.624;11.760;2023-09-19T10:05:16;16.40;;;6.00;;
71648;SDS011;70112;45.624;11.760;2023-09-19T10:07:49;11.80;;;5.90;;
71648;SDS011;70112;45.624;11.760;2023-09-19T10:13:12;10.80;;;5.60;;
71648;SDS011;70112;45.624;11.760;2023-09-19T10:18:14;14.30;;;6.20;;
71648;SDS011;70112;45.624;11.760;2023-09-19T10:20:44;10.00;;;5.80;;
71648;SDS011;70112;45.624;11.760;2023-09-19T10:23:11;10.30;;;5.90;;
71648;SDS011;70112;45.624;11.760;2023-09-19T10:25:41;13.00;;;6.40;;
71648;SDS011;70112;45.624;11.760;2023-09-19T10:28:10;17.70;;;6.80;;
71648;SDS011;70112;45.624;11.760;2023-09-19T10:30:41;14.90;;;6.80;;
71648;SDS011;70112;45.624;11.760;2023-09-19T10:33:13;13.10;;;6.30;;
71648;SDS011;70112;45.624;11.760;2023-09-19T10:35:45;16.80;;;7.50;;
71648;SDS011;70112;45.624;11.760;2023-09-19T10:38:14;10.90;;;6.20;;
71648;SDS011;70112;45.624;11.760;2023-09-19T10:40:44;12.30;;;5.90;;
71648;SDS011;70112;45.624;11.760;2023-09-19T10:43:16;11.00;;;5.80;;
71648;SDS011;70112;45.624;11.760;2023-09-19T10:45:47;10.50;;;5.60;;
71648;SDS011;70112;45.624;11.760;2023-09-19T10:48:19;12.70;;;6.10;;
71648;SDS011;70112;45.624;11.760;2023-09-19T10:53:54;11.50;;;5.90;;
71648;SDS011;70112;45.624;11.760;2023-09-19T10:56:38;9.30;;;5.60;;
71648;SDS011;70112;45.624;11.760;2023-09-19T10:59:18;13.10;;;6.50;;
71648;SDS011;70112;45.624;11.760;2023-09-19T11:01:46;14.90;;;6.90;;
71648;SDS011;70112;45.624;11.760;2023-09-19T11:07:07;16.60;;;5.50;;
71648;SDS011;70112;45.624;11.760;2023-09-19T11:09:48;13.10;;;6.30;;
71648;SDS011;70112;45.624;11.760;2023-09-19T11:14:54;10.40;;;4.60;;
71648;SDS011;70112;45.624;11.760;2023-09-19T11:30:33;13.10;;;5.80;;
71648;SDS011;70112;45.624;11.760;2023-09-19T11:33:16;18.70;;;7.00;;
71648;SDS011;70112;45.624;11.760;2023-09-19T11:36:05;13.60;;;7.40;;
71648;SDS011;70112;45.624;11.760;2023-09-19T11:43:45;12.20;;;5.20;;
71648;SDS011;70112;45.624;11.760;2023-09-19T11:46:12;8.80;;;5.70;;
71648;SDS011;70112;45.624;11.760;2023-09-19T11:48:42;12.20;;;5.00;;
71648;SDS011;70112;45.624;11.760;2023-09-19T11:51:17;19.90;;;6.80;;
71648;SDS011;70112;45.624;11.760;2023-09-19T11:53:46;15.40;;;5.60;;
71648;SDS011;70112;45.624;11.760;2023-09-19T11:56:16;13.50;;;4.90;;
71648;SDS011;70112;45.624;11.760;2023-09-19T11:58:46;10.80;;;5.00;;
71648;SDS011;70112;45.624;11.760;2023-09-19T12:01:15;8.20;;;4.60;;
71648;SDS011;70112;45.624;11.760;2023-09-19T12:03:55;10.00;;;4.40;;
71648;SDS011;70112;45.624;11.760;2023-09-19T12:06:23;13.20;;;4.70;;
71648;SDS011;70112;45.624;11.760;2023-09-19T12:08:50;10.70;;;4.20;;
71648;SDS011;70112;45.624;11.760;2023-09-19T12:11:19;9.20;;;4.40;;
71648;SDS011;70112;45.624;11.760;2023-09-19T12:13:48;17.60;;;5.30;;
71648;SDS011;70112;45.624;11.760;2023-09-19T12:16:16;9.50;;;5.10;;
71648;SDS011;70112;45.624;11.760;2023-09-19T12:18:47;11.20;;;5.20;;
71648;SDS011;70112;45.624;11.760;2023-09-19T12:21:31;7.80;;;4.70;;
71648;SDS011;70112;45.624;11.760;2023-09-19T12:23:59;10.30;;;4.80;;
71648;SDS011;70112;45.624;11.760;2023-09-19T12:26:30;8.10;;;4.80;;
71648;SDS011;70112;45.624;11.760;2023-09-19T12:29:03;15.40;;;5.70;;
71648;SDS011;70112;45.624;11.760;2023-09-19T12:31:30;11.20;;;4.90;;
71648;SDS011;70112;45.624;11.760;2023-09-19T12:34:01;10.40;;;4.90;;
71648;SDS011;70112;45.624;11.760;2023-09-19T12:36:27;13.00;;;4.60;;
71648;SDS011;70112;45.624;11.760;2023-09-19T12:38:58;8.00;;;4.60;;
71648;SDS011;70112;45.624;11.760;2023-09-19T12:41:25;9.10;;;4.60;;
71648;SDS011;70112;45.624;11.760;2023-09-19T12:43:54;12.00;;;4.30;;
71648;SDS011;70112;45.624;11.760;2023-09-19T12:46:23;9.80;;;4.30;;
71648;SDS011;70112;45.624;11.760;2023-09-19T12:49:19;10.40;;;4.50;;
71648;SDS011;70112;45.624;11.760;2023-09-19T12:51:46;10.60;;;4.40;;
71648;SDS011;70112;45.624;11.760;2023-09-19T12:54:13;7.90;;;4.00;;
71648;SDS011;70112;45.624;11.760;2023-09-19T12:56:45;8.60;;;4.30;;
71648;SDS011;70112;45.624;11.760;2023-09-19T12:59:14;10.40;;;4.50;;
71648;SDS011;70112;45.624;11.760;2023-09-19T13:01:42;13.60;;;4.10;;
71648;SDS011;70112;45.624;11.760;2023-09-19T13:04:15;18.40;;;4.80;;
71648;SDS011;70112;45.624;11.760;2023-09-19T13:09:15;11.80;;;3.80;;
71648;SDS011;70112;45.624;11.760;2023-09-19T13:11:42;9.20;;;3.90;;
71648;SDS011;70112;45.624;11.760;2023-09-19T13:17:01;13.00;;;3.90;;
71648;SDS011;70112;45.624;11.760;2023-09-19T13:22:22;10.60;;;3.90;;
71648;SDS011;70112;45.624;11.760;2023-09-19T13:25:29;9.40;;;4.10;;
71648;SDS011;70112;45.624;11.760;2023-09-19T13:27:56;7.50;;;3.80;;
71648;SDS011;70112;45.624;11.760;2023-09-19T13:30:24;6.20;;;3.90;;
71648;SDS011;70112;45.624;11.760;2023-09-19T13:32:51;6.80;;;4.40;;
71648;SDS011;70112;45.624;11.760;2023-09-19T13:35:18;9.50;;;4.40;;
71648;SDS011;70112;45.624;11.760;2023-09-19T13:37:44;6.80;;;3.90;;
71648;SDS011;70112;45.624;11.760;2023-09-19T13:40:14;8.60;;;3.60;;
71648;SDS011;70112;45.624;11.760;2023-09-19T13:42:41;9.80;;;3.80;;
71648;SDS011;70112;45.624;11.760;2023-09-19T13:45:08;5.80;;;3.80;;
71648;SDS011;70112;45.624;11.760;2023-09-19T13:47:42;6.50;;;3.70;;
71648;SDS011;70112;45.624;11.760;2023-09-19T13:50:08;4.50;;;3.30;;
71648;SDS011;70112;45.624;11.760;2023-09-19T13:52:34;6.60;;;3.20;;
